createdAt,value
2019-02-22T00:02:05.734Z,79.38
2019-02-22T00:04:33.723Z,79.40
2019-02-22T00:07:01.759Z,80.01
2019-02-22T00:09:29.561Z,80.12
2019-02-22T00:11:57.582Z,80.09
2019-02-22T00:14:25.630Z,80.43
2019-02-22T00:16:53.566Z,80.34
2019-02-22T00:19:21.577Z,80.45
2019-02-22T00:21:49.637Z,81.08
2019-02-22T00:24:17.572Z,81.08
2019-02-22T00:26:45.381Z,81.76
2019-02-22T00:29:13.660Z,81.55
2019-02-22T00:31:41.961Z,81.42
2019-02-22T00:34:09.915Z,81.65
2019-02-22T00:36:37.942Z,81.82
2019-02-22T00:39:06.140Z,81.95
2019-02-22T00:41:35.275Z,82.74
2019-02-22T00:44:03.435Z,82.46
2019-02-22T00:46:31.316Z,82.93
2019-02-22T00:48:59.510Z,83.41
2019-02-22T00:51:27.783Z,83.20
2019-02-22T00:53:55.606Z,82.94
2019-02-22T00:56:23.588Z,82.91
2019-02-22T00:58:52.547Z,82.75
2019-02-22T01:01:20.565Z,82.54
2019-02-22T01:03:49.537Z,82.34
2019-02-22T01:06:17.314Z,82.46
2019-02-22T01:08:45.210Z,83.15
2019-02-22T01:11:13.038Z,82.77
2019-02-22T01:13:40.991Z,83.29
2019-02-22T01:16:09.094Z,83.03
2019-02-22T01:18:37.351Z,82.92
2019-02-22T01:21:05.202Z,82.81
2019-02-22T01:23:33.005Z,82.87
2019-02-22T01:26:00.966Z,83.10
2019-02-22T01:28:30.096Z,83.25
2019-02-22T01:30:58.206Z,82.94
2019-02-22T01:33:26.232Z,82.70
2019-02-22T01:35:54.037Z,82.54
2019-02-22T01:38:22.131Z,83.22
2019-02-22T01:40:50.039Z,83.71
2019-02-22T01:43:18.141Z,83.85
2019-02-22T01:45:46.085Z,84.27
2019-02-22T01:48:14.096Z,83.95
2019-02-22T01:50:42.279Z,84.03
2019-02-22T01:53:10.400Z,83.77
2019-02-22T01:55:38.325Z,83.66
2019-02-22T01:58:06.278Z,84.17
2019-02-22T02:00:34.155Z,83.93
2019-02-22T02:03:02.263Z,83.76
2019-02-22T02:05:30.320Z,83.75
2019-02-22T02:07:58.572Z,84.46
2019-02-22T02:10:26.325Z,84.43
2019-02-22T02:12:54.451Z,85.05
2019-02-22T02:15:22.371Z,85.45
2019-02-22T02:17:50.451Z,85.39
2019-02-22T02:20:18.429Z,85.54
2019-02-22T02:22:46.666Z,86.21
2019-02-22T02:25:14.888Z,86.09
2019-02-22T02:27:42.836Z,86.46
2019-02-22T02:30:11.049Z,86.94
2019-02-22T02:32:39.142Z,87.15
2019-02-22T02:35:07.280Z,87.05
2019-02-22T02:37:35.484Z,86.74
2019-02-22T02:40:04.129Z,87.48
2019-02-22T02:42:32.257Z,87.55
2019-02-22T02:45:00.576Z,87.35
2019-02-22T02:47:28.797Z,86.96
2019-02-22T02:49:56.892Z,86.95
2019-02-22T02:52:25.115Z,87.03
2019-02-22T02:54:53.161Z,86.87
2019-02-22T02:57:21.271Z,86.75
2019-02-22T02:59:49.389Z,86.68
2019-02-22T03:02:28.956Z,86.93
2019-02-22T03:04:56.855Z,86.41
2019-02-22T03:07:44.864Z,86.71
2019-02-22T03:10:12.930Z,86.83
2019-02-22T03:12:40.943Z,86.74
2019-02-22T03:15:10.048Z,86.47
2019-02-22T03:17:38.382Z,86.57
2019-02-22T03:20:06.204Z,87.35
2019-02-22T03:22:34.272Z,88.12
2019-02-22T03:25:02.190Z,89.00
2019-02-22T03:27:30.155Z,89.45
2019-02-22T03:29:58.342Z,89.71
2019-02-22T03:32:26.406Z,89.73
2019-02-22T03:34:54.297Z,89.79
2019-02-22T03:37:22.570Z,89.71
2019-02-22T03:39:50.682Z,89.58
2019-02-22T03:42:18.609Z,89.58
2019-02-22T03:44:46.929Z,89.78
2019-02-22T03:47:14.882Z,89.94
2019-02-22T03:49:43.862Z,89.68
2019-02-22T03:52:24.887Z,89.49
2019-02-22T03:54:52.958Z,89.54
2019-02-22T03:57:21.062Z,89.33
2019-02-22T03:59:51.174Z,89.08
2019-02-22T04:02:19.009Z,89.61
2019-02-22T04:04:47.117Z,89.61
2019-02-22T04:07:14.991Z,89.54
2019-02-22T04:09:42.716Z,89.54
2019-02-22T04:12:10.750Z,89.87
2019-02-22T04:14:39.050Z,90.48
2019-02-22T04:17:07.137Z,90.17
2019-02-22T04:19:35.123Z,89.89
2019-02-22T04:22:03.318Z,90.05
2019-02-22T04:24:31.214Z,90.12
2019-02-22T04:26:59.159Z,89.83
2019-02-22T04:29:27.177Z,89.65
2019-02-22T04:31:55.121Z,89.72
2019-02-22T04:34:22.916Z,89.89
2019-02-22T04:36:50.972Z,89.58
2019-02-22T04:39:18.984Z,89.50
2019-02-22T04:41:57.804Z,89.86
2019-02-22T04:44:17.290Z,90.05
2019-02-22T04:46:45.180Z,90.21
2019-02-22T04:49:13.324Z,90.06
2019-02-22T04:51:41.350Z,90.37
2019-02-22T04:54:09.165Z,90.44
2019-02-22T04:56:37.054Z,90.97
2019-02-22T04:59:05.157Z,90.85
2019-02-22T05:01:33.253Z,90.92
2019-02-22T05:04:01.514Z,90.89
2019-02-22T05:06:29.496Z,90.86
2019-02-22T05:08:57.632Z,90.51
2019-02-22T05:13:53.979Z,90.36
2019-02-22T05:16:21.910Z,90.22
2019-02-22T05:18:49.804Z,90.27
2019-02-22T05:21:17.741Z,90.04
2019-02-22T05:23:45.528Z,90.03
2019-02-22T05:26:13.478Z,90.31
2019-02-22T05:28:41.348Z,90.43
2019-02-22T05:31:09.407Z,90.43
2019-02-22T05:33:37.263Z,90.45
2019-02-22T05:36:05.162Z,90.20
2019-02-22T05:38:33.214Z,90.83
2019-02-22T05:41:01.259Z,90.22
2019-02-22T05:43:29.486Z,90.65
2019-02-22T05:45:57.659Z,90.39
2019-02-22T05:48:27.206Z,90.64
2019-02-22T05:50:56.829Z,90.32
2019-02-22T05:53:24.888Z,90.42
2019-02-22T05:55:52.751Z,90.15
2019-02-22T05:58:20.636Z,90.00
2019-02-22T06:00:50.245Z,89.95
2019-02-22T06:03:18.228Z,89.38
2019-02-22T06:05:47.633Z,89.67
2019-02-22T06:08:15.858Z,89.95
2019-02-22T06:10:43.808Z,89.98
2019-02-22T06:13:11.792Z,89.32
2019-02-22T06:15:39.894Z,88.76
2019-02-22T06:18:07.939Z,88.24
2019-02-22T06:20:36.079Z,87.69
2019-02-22T06:23:04.340Z,87.17
2019-02-22T06:25:32.312Z,87.09
2019-02-22T06:28:00.262Z,86.43
2019-02-22T06:30:28.370Z,85.93
2019-02-22T06:32:56.281Z,84.34
2019-02-22T06:35:24.128Z,84.00
2019-02-22T06:37:52.093Z,83.63
2019-02-22T06:40:21.690Z,82.56
2019-02-22T06:42:50.094Z,81.96
2019-02-22T06:45:18.169Z,81.96
2019-02-22T06:47:46.174Z,81.72
2019-02-22T06:50:15.970Z,81.31
2019-02-22T06:52:44.070Z,80.82
2019-02-22T06:55:12.258Z,81.00
2019-02-22T06:57:40.057Z,80.59
2019-02-22T07:00:09.020Z,80.61
2019-02-22T07:02:36.931Z,80.75
2019-02-22T07:05:04.942Z,79.86
2019-02-22T07:07:32.839Z,80.18
2019-02-22T07:10:00.907Z,80.45
2019-02-22T07:12:32.931Z,80.37
2019-02-22T07:15:00.973Z,80.53
2019-02-22T07:17:29.032Z,80.02
2019-02-22T07:19:57.363Z,80.16
2019-02-22T07:22:25.455Z,80.14
2019-02-22T07:24:53.327Z,80.19
2019-02-22T07:27:21.218Z,80.37
2019-02-22T07:29:49.177Z,80.64
2019-02-22T07:32:17.162Z,80.45
2019-02-22T07:34:44.995Z,80.49
2019-02-22T07:37:12.886Z,80.66
2019-02-22T07:39:40.733Z,80.64
2019-02-22T07:42:08.746Z,80.72
2019-02-22T07:44:36.751Z,80.87
2019-02-22T07:47:04.945Z,80.57
2019-02-22T07:49:32.996Z,80.36
2019-02-22T07:52:01.014Z,80.50
2019-02-22T07:54:29.004Z,80.92
2019-02-22T07:56:57.146Z,80.61
2019-02-22T07:59:25.257Z,80.92
2019-02-22T08:01:53.276Z,80.93
2019-02-22T08:04:21.340Z,80.92
2019-02-22T08:06:49.343Z,81.77
2019-02-22T08:09:17.088Z,82.11
2019-02-22T08:11:47.412Z,81.87
2019-02-22T08:14:15.060Z,81.44
2019-02-22T08:16:43.136Z,81.67
2019-02-22T08:19:11.408Z,81.80
2019-02-22T08:21:39.672Z,81.61
2019-02-22T08:24:07.555Z,81.62
2019-02-22T08:26:35.464Z,81.06
2019-02-22T08:29:03.938Z,80.26
2019-02-22T08:31:31.954Z,80.12
2019-02-22T08:33:59.781Z,80.26
2019-02-22T08:36:27.833Z,80.07
2019-02-22T08:38:55.829Z,79.55
2019-02-22T08:41:23.879Z,79.46
2019-02-22T08:43:52.070Z,78.73
2019-02-22T08:46:20.323Z,78.60
2019-02-22T08:48:48.180Z,78.73
2019-02-22T08:51:16.366Z,77.37
2019-02-22T08:53:44.736Z,74.92
2019-02-22T08:56:12.598Z,75.55
2019-02-22T08:58:40.595Z,75.29
2019-02-22T09:01:08.660Z,74.47
2019-02-22T09:03:36.779Z,74.42
2019-02-22T09:06:04.973Z,73.24
2019-02-22T09:08:32.985Z,72.67
2019-02-22T09:11:01.040Z,72.62
2019-02-22T09:13:29.335Z,72.96
2019-02-22T09:15:57.623Z,72.73
2019-02-22T09:18:25.556Z,72.03
2019-02-22T09:20:53.307Z,72.16
2019-02-22T09:23:21.178Z,71.29
2019-02-22T09:25:49.127Z,71.38
2019-02-22T09:28:17.130Z,70.70
2019-02-22T09:30:45.020Z,69.61
2019-02-22T09:33:13.065Z,69.17
2019-02-22T09:35:41.028Z,67.98
2019-02-22T09:38:08.900Z,65.93
2019-02-22T09:40:37.090Z,64.10
2019-02-22T09:43:04.922Z,61.61
2019-02-22T09:45:32.798Z,61.58
2019-02-22T09:48:00.881Z,59.72
2019-02-22T09:50:28.717Z,57.86
2019-02-22T09:52:56.839Z,58.45
2019-02-22T09:55:24.662Z,57.13
2019-02-22T09:57:52.566Z,57.16
2019-02-22T10:00:20.455Z,57.55
2019-02-22T10:02:48.411Z,56.78
2019-02-22T10:05:16.613Z,56.03
2019-02-22T10:07:44.641Z,57.16
2019-02-22T10:10:12.954Z,55.58
2019-02-22T10:12:41.121Z,55.99
2019-02-22T10:15:09.084Z,55.24
2019-02-22T10:17:37.023Z,56.55
2019-02-22T10:20:05.387Z,56.29
2019-02-22T10:22:33.325Z,57.67
2019-02-22T10:25:01.390Z,57.57
2019-02-22T10:27:29.462Z,58.54
2019-02-22T10:29:57.568Z,58.27
2019-02-22T10:32:25.520Z,59.39
2019-02-22T10:34:53.465Z,59.64
2019-02-22T10:37:21.756Z,58.78
2019-02-22T10:39:49.857Z,59.77
2019-02-22T10:42:17.923Z,59.12
2019-02-22T10:44:45.787Z,59.93
2019-02-22T10:47:13.836Z,60.00
2019-02-22T10:49:41.859Z,59.51
2019-02-22T10:52:09.979Z,58.90
2019-02-22T10:54:38.034Z,58.26
2019-02-22T10:57:06.251Z,58.04
2019-02-22T10:59:34.204Z,57.98
2019-02-22T11:02:02.306Z,59.29
2019-02-22T11:04:30.305Z,59.87
2019-02-22T11:06:58.393Z,59.60
2019-02-22T11:09:26.434Z,59.95
2019-02-22T11:11:54.412Z,59.73
2019-02-22T11:14:29.147Z,59.57
2019-02-22T11:16:52.298Z,59.06
2019-02-22T11:19:20.229Z,58.34
2019-02-22T11:21:48.416Z,59.10
2019-02-22T11:24:16.225Z,58.81
2019-02-22T11:26:44.177Z,58.76
2019-02-22T11:29:12.178Z,58.11
2019-02-22T11:31:40.040Z,58.72
2019-02-22T11:34:08.264Z,58.08
2019-02-22T11:36:36.020Z,58.60
2019-02-22T11:39:04.708Z,58.66
2019-02-22T11:41:34.653Z,59.31
2019-02-22T11:44:02.606Z,59.11
2019-02-22T11:46:30.576Z,58.09
2019-02-22T11:48:58.518Z,58.11
2019-02-22T11:51:26.764Z,57.89
2019-02-22T11:53:55.011Z,58.32
2019-02-22T11:56:22.912Z,58.29
2019-02-22T11:58:50.926Z,57.88
2019-02-22T12:01:18.811Z,55.31
2019-02-22T12:03:47.093Z,54.15
2019-02-22T12:06:14.684Z,52.16
2019-02-22T12:08:42.959Z,52.76
2019-02-22T12:11:10.465Z,50.90
2019-02-22T12:13:39.714Z,51.55
2019-02-22T12:16:07.292Z,50.62
2019-02-22T12:18:36.623Z,50.97
2019-02-22T12:21:04.295Z,50.85
2019-02-22T12:23:31.870Z,51.05
2019-02-22T12:25:59.507Z,52.17
2019-02-22T12:28:27.125Z,51.04
2019-02-22T12:30:54.709Z,53.19
2019-02-22T12:33:22.319Z,52.75
2019-02-22T12:35:49.999Z,53.87
2019-02-22T12:38:17.581Z,54.22
2019-02-22T12:40:45.177Z,55.62
2019-02-22T12:43:12.936Z,54.54
2019-02-22T12:45:40.548Z,54.96
2019-02-22T12:48:08.105Z,53.82
2019-02-22T12:50:35.634Z,53.08
2019-02-22T12:53:03.255Z,52.36
2019-02-22T12:55:30.857Z,52.49
2019-02-22T12:57:58.451Z,53.27
2019-02-22T13:00:26.041Z,52.14
2019-02-22T13:03:01.616Z,52.75
2019-02-22T13:05:23.480Z,53.01
2019-02-22T13:07:52.661Z,50.97
2019-02-22T13:10:20.676Z,51.47
2019-02-22T13:12:48.374Z,52.02
2019-02-22T13:15:16.060Z,52.70
2019-02-22T13:17:43.843Z,52.30
2019-02-22T13:20:12.200Z,53.08
2019-02-22T13:22:40.382Z,51.57
2019-02-22T13:25:08.494Z,49.58
2019-02-22T13:27:36.731Z,49.62
2019-02-22T13:30:05.008Z,48.61
2019-02-22T13:32:32.999Z,47.68
2019-02-22T13:35:02.831Z,48.07
2019-02-22T13:37:30.752Z,48.70
2019-02-22T13:39:58.832Z,49.89
2019-02-22T13:42:26.587Z,51.42
2019-02-22T13:44:54.219Z,54.20
2019-02-22T13:47:21.815Z,56.34
2019-02-22T13:49:49.377Z,53.05
2019-02-22T13:52:17.028Z,53.46
2019-02-22T13:54:44.637Z,52.71
2019-02-22T13:57:12.337Z,53.27
2019-02-22T13:59:40.092Z,53.30
2019-02-22T14:02:07.917Z,52.57
2019-02-22T14:04:35.635Z,54.12
2019-02-22T14:07:04.876Z,53.02
2019-02-22T14:09:33.045Z,50.23
2019-02-22T14:12:01.167Z,49.40
2019-02-22T14:14:29.290Z,50.75
2019-02-22T14:16:57.363Z,52.39
2019-02-22T14:19:25.576Z,53.34
2019-02-22T14:21:53.826Z,54.34
2019-02-22T14:24:21.915Z,55.91
2019-02-22T14:26:51.121Z,56.63
2019-02-22T14:29:19.577Z,57.64
2019-02-22T14:31:47.452Z,58.26
2019-02-22T14:34:15.539Z,58.58
2019-02-22T14:36:43.804Z,59.05
2019-02-22T14:39:12.341Z,59.58
2019-02-22T14:41:40.381Z,60.66
2019-02-22T14:44:08.235Z,61.54
2019-02-22T14:46:36.223Z,62.23
2019-02-22T14:49:04.338Z,62.80
2019-02-22T14:51:32.318Z,63.26
2019-02-22T14:54:00.173Z,63.83
2019-02-22T14:56:28.138Z,63.97
2019-02-22T14:58:56.105Z,65.02
2019-02-22T15:01:24.301Z,64.92
2019-02-22T15:03:52.278Z,65.24
2019-02-22T15:06:20.439Z,65.05
2019-02-22T15:08:48.611Z,65.39
2019-02-22T15:11:16.817Z,64.76
2019-02-22T15:13:44.669Z,64.19
2019-02-22T15:16:38.390Z,63.85
2019-02-22T15:19:06.428Z,63.22
2019-02-22T15:21:35.990Z,63.10
2019-02-22T15:24:03.870Z,63.22
2019-02-22T15:26:31.929Z,62.95
2019-02-22T15:28:59.827Z,62.97
2019-02-22T15:31:35.868Z,62.94
2019-02-22T15:33:57.441Z,63.59
2019-02-22T15:36:25.448Z,63.63
2019-02-22T15:38:53.564Z,64.10
2019-02-22T15:41:21.600Z,63.95
2019-02-22T15:43:49.637Z,64.24
2019-02-22T15:46:17.827Z,63.94
2019-02-22T15:48:45.530Z,63.76
2019-02-22T15:51:13.590Z,63.76
2019-02-22T15:53:43.928Z,64.03
2019-02-22T15:56:11.759Z,64.13
2019-02-22T15:58:39.661Z,64.07
2019-02-22T16:01:07.794Z,64.05
2019-02-22T16:04:07.570Z,64.04
2019-02-22T16:06:35.501Z,63.80
2019-02-22T16:09:06.252Z,63.90
2019-02-22T16:11:36.370Z,63.97
2019-02-22T16:14:07.236Z,64.18
2019-02-22T16:16:35.297Z,64.58
2019-02-22T16:19:03.297Z,64.46
2019-02-22T16:21:31.330Z,64.86
2019-02-22T16:23:59.300Z,64.72
2019-02-22T16:26:29.190Z,65.00
2019-02-22T16:28:57.323Z,64.66
2019-02-22T16:31:25.386Z,64.62
2019-02-22T16:33:53.183Z,64.45
2019-02-22T16:36:21.448Z,64.64
2019-02-22T16:38:49.420Z,64.55
2019-02-22T16:41:17.264Z,64.23
2019-02-22T16:43:45.117Z,63.96
2019-02-22T16:46:14.132Z,64.83
2019-02-22T16:48:41.868Z,64.81
2019-02-22T16:51:09.767Z,65.06
2019-02-22T16:53:38.689Z,65.39
2019-02-22T16:56:06.710Z,65.13
2019-02-22T16:58:34.761Z,65.36
2019-02-22T17:01:02.719Z,65.27
2019-02-22T17:03:32.113Z,65.59
2019-02-22T17:06:00.156Z,65.54
2019-02-22T17:08:28.430Z,65.64
2019-02-22T17:10:56.401Z,65.58
2019-02-22T17:13:24.504Z,65.82
2019-02-22T17:15:52.262Z,65.78
2019-02-22T17:18:20.266Z,66.20
2019-02-22T17:20:48.340Z,65.83
2019-02-22T17:23:16.391Z,65.87
2019-02-22T17:25:44.455Z,65.52
2019-02-22T17:28:12.342Z,65.22
2019-02-22T17:30:40.479Z,65.07
2019-02-22T17:33:08.633Z,64.91
2019-02-22T17:35:36.938Z,65.08
2019-02-22T17:38:05.243Z,64.85
2019-02-22T17:40:33.591Z,64.67
2019-02-22T17:43:01.465Z,64.91
2019-02-22T17:45:29.342Z,65.23
2019-02-22T17:47:57.319Z,64.66
2019-02-22T17:50:25.463Z,64.54
2019-02-22T17:52:53.456Z,63.96
2019-02-22T17:55:21.614Z,63.88
2019-02-22T17:57:49.337Z,63.83
2019-02-22T18:00:19.292Z,63.51
2019-02-22T18:02:47.434Z,63.65
2019-02-22T18:05:15.473Z,63.73
2019-02-22T18:07:44.286Z,63.54
2019-02-22T18:10:12.141Z,62.67
2019-02-22T18:12:40.333Z,62.85
2019-02-22T18:15:08.361Z,62.56
2019-02-22T18:17:36.259Z,62.40
2019-02-22T18:20:04.378Z,62.34
2019-02-22T18:22:32.425Z,62.12
2019-02-22T18:25:00.408Z,61.87
2019-02-22T18:27:28.299Z,61.76
2019-02-22T18:29:57.216Z,61.86
2019-02-22T18:32:25.185Z,61.43
2019-02-22T18:34:52.924Z,61.10
2019-02-22T18:37:21.135Z,60.86
2019-02-22T18:39:49.143Z,60.68
2019-02-22T18:42:17.122Z,60.79
2019-02-22T18:44:44.929Z,61.01
2019-02-22T18:47:19.408Z,60.53
2019-02-22T18:49:42.901Z,61.27
2019-02-22T18:52:11.067Z,61.11
2019-02-22T18:54:38.961Z,60.52
2019-02-22T18:57:06.895Z,61.13
2019-02-22T18:59:34.737Z,60.97
2019-02-22T19:02:02.904Z,60.67
2019-02-22T19:04:31.057Z,60.03
2019-02-22T19:06:59.080Z,59.94
2019-02-22T19:09:27.053Z,59.80
2019-02-22T19:11:55.076Z,60.26
2019-02-22T19:14:22.918Z,59.74
2019-02-22T19:16:50.877Z,59.86
2019-02-22T19:19:18.994Z,59.88
2019-02-22T19:21:46.946Z,59.89
2019-02-22T19:24:16.570Z,59.34
2019-02-22T19:26:44.656Z,59.36
2019-02-22T19:29:12.651Z,57.78
2019-02-22T19:31:40.552Z,58.04
2019-02-22T19:34:08.375Z,57.37
2019-02-22T19:36:36.137Z,56.28
2019-02-22T19:39:05.155Z,56.22
2019-02-22T19:41:35.176Z,56.62
2019-02-22T19:44:03.121Z,56.46
2019-02-22T19:46:31.028Z,54.99
2019-02-22T19:48:59.036Z,55.42
2019-02-22T19:51:27.148Z,53.55
2019-02-22T19:53:55.026Z,53.34
2019-02-22T19:56:23.057Z,52.78
2019-02-22T19:58:50.724Z,52.87
2019-02-22T20:01:18.555Z,52.92
2019-02-22T20:03:47.899Z,52.68
2019-02-22T20:06:16.045Z,51.88
2019-02-22T20:08:44.013Z,51.43
2019-02-22T20:11:12.106Z,51.66
2019-02-22T20:13:39.899Z,51.09
2019-02-22T20:16:07.697Z,51.03
2019-02-22T20:18:36.742Z,51.34
2019-02-22T20:21:04.672Z,51.18
2019-02-22T20:23:32.995Z,51.58
2019-02-22T20:26:01.017Z,51.64
2019-02-22T20:28:29.053Z,51.33
2019-02-22T20:30:56.918Z,50.80
2019-02-22T20:33:25.993Z,52.48
2019-02-22T20:35:53.877Z,51.42
2019-02-22T20:38:21.677Z,53.18
2019-02-22T20:40:49.701Z,51.71
2019-02-22T20:43:17.667Z,52.36
2019-02-22T20:45:45.530Z,52.14
2019-02-22T20:48:13.410Z,52.77
2019-02-22T20:50:41.234Z,52.20
2019-02-22T20:53:09.142Z,52.43
2019-02-22T20:55:37.079Z,52.56
2019-02-22T20:58:05.078Z,53.24
2019-02-22T21:00:33.020Z,53.24
2019-02-22T21:03:00.902Z,53.13
2019-02-22T21:05:28.880Z,53.62
2019-02-22T21:07:56.717Z,53.77
2019-02-22T21:10:24.865Z,53.36
2019-02-22T21:12:52.667Z,53.49
2019-02-22T21:15:20.538Z,53.68
2019-02-22T21:17:48.840Z,54.09
2019-02-22T21:20:16.938Z,53.78
2019-02-22T21:22:44.847Z,54.38
2019-02-22T21:25:13.895Z,53.92
2019-02-22T21:27:41.998Z,53.52
2019-02-22T21:30:12.427Z,52.92
2019-02-22T21:32:40.376Z,52.71
2019-02-22T21:35:08.272Z,54.48
2019-02-22T21:37:37.249Z,53.20
2019-02-22T21:40:05.742Z,52.82
2019-02-22T21:42:33.769Z,53.78
2019-02-22T21:45:01.894Z,52.98
2019-02-22T21:47:30.611Z,53.33
2019-02-22T21:49:58.549Z,54.16
2019-02-22T21:52:26.447Z,53.72
2019-02-22T21:54:54.259Z,53.75
2019-02-22T21:57:22.216Z,56.46
2019-02-22T21:59:49.902Z,54.76
2019-02-22T22:02:17.957Z,53.53
2019-02-22T22:04:46.030Z,53.84
2019-02-22T22:07:13.957Z,53.88
2019-02-22T22:09:43.004Z,54.01
2019-02-22T22:12:11.105Z,53.87
2019-02-22T22:14:39.165Z,54.86
2019-02-22T22:17:07.227Z,54.50
2019-02-22T22:19:35.276Z,55.68
2019-02-22T22:22:03.394Z,55.74
2019-02-22T22:24:33.020Z,54.94
2019-02-22T22:27:00.887Z,55.02
2019-02-22T22:29:28.782Z,55.67
2019-02-22T22:31:56.670Z,57.08
2019-02-22T22:34:24.598Z,57.36
2019-02-22T22:36:52.562Z,57.90
2019-02-22T22:39:20.531Z,58.19
2019-02-22T22:41:48.400Z,59.02
2019-02-22T22:44:16.388Z,59.11
2019-02-22T22:46:44.404Z,59.42
2019-02-22T22:49:12.547Z,59.68
2019-02-22T22:51:40.403Z,59.36
2019-02-22T22:54:08.321Z,59.20
2019-02-22T22:56:36.319Z,58.99
2019-02-22T22:59:04.210Z,59.14
2019-02-22T23:01:34.188Z,58.98
2019-02-22T23:04:02.392Z,58.74
2019-02-22T23:06:30.391Z,58.90
2019-02-22T23:08:58.399Z,58.46
2019-02-22T23:11:26.421Z,58.60
2019-02-22T23:13:54.247Z,58.78
2019-02-22T23:16:22.110Z,58.14
2019-02-22T23:19:01.124Z,57.73
2019-02-22T23:21:20.178Z,57.66
2019-02-22T23:23:47.983Z,57.50
2019-02-22T23:26:15.849Z,57.18
2019-02-22T23:28:43.713Z,56.32
2019-02-22T23:31:11.777Z,56.15
2019-02-22T23:33:39.999Z,55.67
2019-02-22T23:36:08.033Z,55.07
2019-02-22T23:38:36.039Z,54.99
2019-02-22T23:41:05.097Z,54.99
2019-02-22T23:43:32.963Z,55.02
2019-02-22T23:46:01.041Z,54.90
2019-02-22T23:48:28.945Z,53.73
2019-02-22T23:50:56.984Z,53.75
2019-02-22T23:53:24.876Z,52.90
2019-02-22T23:55:52.783Z,53.48
2019-02-22T23:58:21.011Z,53.30
